Time;durP1;ratioP1;P1;durP2;ratioP2;P2;SDS_P1;SDS_P2;PMS_P1;PMS_P2;Temp;Humidity;BMP_temperature;BMP_pressure;BME280_temperature;BME280_humidity;BME280_pressure;Samples;Min_cycle;Max_cycle;Signal;HPM_P1;HPM_P2
2024/01/19 00:00:30;;;;;;;110.93;46.87;;;;;;;;;;5076599;28;20717;-77
2024/01/19 00:03:17;;;;;;;120.17;47.07;;;;;;;;;;5061917;28;20723;-76
2024/01/19 00:05:44;;;;;;;118.50;49.30;;;;;;;;;;5076344;28;20282;-76
2024/01/19 00:08:11;;;;;;;129.93;49.27;;;;;;;;;;5058930;28;20231;-76
2024/01/19 00:10:39;;;;;;;122.10;48.97;;;;;;;;;;5076944;28;20282;-76
2024/01/19 00:13:05;;;;;;;126.23;49.10;;;;;;;;;;5042496;28;20203;-76
2024/01/19 00:15:34;;;;;;;118.43;45.37;;;;;;;;;;5058567;28;20214;-76
2024/01/19 00:18:08;;;;;;;134.43;49.77;;;;;;;;;;5058822;28;20233;-77
2024/01/19 00:20:36;;;;;;;131.90;48.17;;;;;;;;;;5059062;28;20196;-76
2024/01/19 00:23:03;;;;;;;147.37;52.00;;;;;;;;;;5076519;28;20188;-77
2024/01/19 00:25:31;;;;;;;132.20;51.37;;;;;;;;;;5058719;28;20209;-76
2024/01/19 00:27:58;;;;;;;144.63;51.87;;;;;;;;;;5077272;28;20226;-79
2024/01/19 00:30:25;;;;;;;146.47;53.83;;;;;;;;;;5076512;28;20200;-76
2024/01/19 00:32:52;;;;;;;147.30;53.17;;;;;;;;;;5075969;28;20582;-76
2024/01/19 00:35:19;;;;;;;135.20;52.63;;;;;;;;;;5076286;28;20628;-77
2024/01/19 00:37:48;;;;;;;137.10;51.87;;;;;;;;;;5058318;28;20582;-76
2024/01/19 00:40:15;;;;;;;131.53;49.83;;;;;;;;;;5058509;28;20200;-76
2024/01/19 00:42:43;;;;;;;135.23;51.30;;;;;;;;;;5074696;28;20290;-77
2024/01/19 00:45:11;;;;;;;126.63;50.23;;;;;;;;;;5058583;28;20203;-76
2024/01/19 00:47:38;;;;;;;126.67;49.57;;;;;;;;;;5058305;28;20632;-78
2024/01/19 00:50:08;;;;;;;129.00;51.27;;;;;;;;;;5058006;28;20214;-77
2024/01/19 00:52:35;;;;;;;134.57;49.83;;;;;;;;;;5075670;28;20563;-77
2024/01/19 00:55:03;;;;;;;131.43;49.57;;;;;;;;;;5057805;28;20599;-77
2024/01/19 00:57:30;;;;;;;132.07;50.27;;;;;;;;;;5075574;28;20215;-77
2024/01/19 00:59:57;;;;;;;132.03;50.77;;;;;;;;;;5066059;28;20228;-77
2024/01/19 01:02:27;;;;;;;127.27;48.77;;;;;;;;;;5055597;28;20588;-77
2024/01/19 01:04:55;;;;;;;139.83;50.63;;;;;;;;;;5055463;28;20219;-77
2024/01/19 01:07:23;;;;;;;129.63;47.83;;;;;;;;;;5037839;28;20212;-77
2024/01/19 01:09:50;;;;;;;120.47;46.10;;;;;;;;;;5037398;28;20569;-77
2024/01/19 01:12:17;;;;;;;133.77;47.90;;;;;;;;;;5055145;28;20204;-77
2024/01/19 01:14:46;;;;;;;123.37;49.27;;;;;;;;;;5037949;28;20553;-77
2024/01/19 01:17:14;;;;;;;126.20;47.30;;;;;;;;;;5055122;28;20224;-77
2024/01/19 01:19:41;;;;;;;121.30;46.60;;;;;;;;;;5054731;28;20203;-77
2024/01/19 01:22:12;;;;;;;118.97;47.87;;;;;;;;;;5054945;28;20208;-77
2024/01/19 01:24:40;;;;;;;112.40;45.77;;;;;;;;;;5055066;28;20200;-77
2024/01/19 01:27:07;;;;;;;124.70;48.50;;;;;;;;;;5055104;28;20208;-77
2024/01/19 01:29:34;;;;;;;118.07;45.73;;;;;;;;;;5054792;28;20580;-77
2024/01/19 01:32:01;;;;;;;120.50;45.70;;;;;;;;;;5054833;28;20203;-77
2024/01/19 01:34:28;;;;;;;118.20;43.93;;;;;;;;;;5054781;28;20204;-77
2024/01/19 01:36:55;;;;;;;117.07;45.63;;;;;;;;;;5055118;28;20219;-77
2024/01/19 01:39:22;;;;;;;116.07;45.73;;;;;;;;;;5054645;28;20564;-77
2024/01/19 01:41:49;;;;;;;115.80;46.50;;;;;;;;;;5055096;28;20219;-80
2024/01/19 01:44:17;;;;;;;111.03;44.77;;;;;;;;;;5054491;28;20208;-79
2024/01/19 01:46:44;;;;;;;103.23;44.90;;;;;;;;;;5054867;28;20291;-79
2024/01/19 01:49:15;;;;;;;100.60;43.73;;;;;;;;;;5054500;28;20265;-80
2024/01/19 01:51:44;;;;;;;101.77;42.87;;;;;;;;;;5054643;28;20202;-77
2024/01/19 01:54:12;;;;;;;114.03;45.00;;;;;;;;;;5054502;28;20215;-76
2024/01/19 01:56:40;;;;;;;111.87;45.93;;;;;;;;;;5036731;28;20208;-76
2024/01/19 01:59:08;;;;;;;110.17;44.57;;;;;;;;;;5045476;28;20708;-76
2024/01/19 02:01:35;;;;;;;107.90;45.50;;;;;;;;;;5034407;28;20510;-76
2024/01/19 02:04:03;;;;;;;111.27;43.77;;;;;;;;;;5034248;28;20205;-76
2024/01/19 02:06:30;;;;;;;117.67;45.03;;;;;;;;;;5034323;28;20592;-76
2024/01/19 02:08:57;;;;;;;106.97;45.63;;;;;;;;;;5034384;28;20727;-77
2024/01/19 02:11:24;;;;;;;114.90;44.40;;;;;;;;;;5034507;28;20193;-77
2024/01/19 02:13:52;;;;;;;112.40;44.33;;;;;;;;;;5017080;28;20255;-78
2024/01/19 02:16:19;;;;;;;99.37;43.27;;;;;;;;;;5016772;28;20213;-77
2024/01/19 02:18:46;;;;;;;105.17;43.53;;;;;;;;;;5033805;28;20681;-76
2024/01/19 02:21:13;;;;;;;112.57;43.47;;;;;;;;;;5034145;28;20231;-77
2024/01/19 02:23:50;;;;;;;108.03;42.87;;;;;;;;;;5034060;28;20262;-76
2024/01/19 02:26:17;;;;;;;106.17;43.40;;;;;;;;;;5016772;28;20208;-76
2024/01/19 02:28:45;;;;;;;110.33;44.77;;;;;;;;;;5033868;28;20205;-77
2024/01/19 02:31:11;;;;;;;106.07;41.80;;;;;;;;;;5033902;28;20196;-76
2024/01/19 02:33:39;;;;;;;100.27;41.60;;;;;;;;;;5033679;28;20200;-76
2024/01/19 02:36:06;;;;;;;102.53;43.20;;;;;;;;;;5033887;28;20211;-76
2024/01/19 02:38:33;;;;;;;108.47;42.00;;;;;;;;;;5033926;28;20231;-76
2024/01/19 02:41:00;;;;;;;100.30;40.60;;;;;;;;;;5033667;28;20197;-77
2024/01/19 02:43:27;;;;;;;95.43;38.67;;;;;;;;;;5033992;28;20209;-76
2024/01/19 02:45:54;;;;;;;97.23;40.17;;;;;;;;;;5033566;28;20573;-76
2024/01/19 02:48:21;;;;;;;89.17;39.63;;;;;;;;;;5033598;28;20203;-76
2024/01/19 02:50:48;;;;;;;99.53;39.37;;;;;;;;;;5016060;28;20657;-76
2024/01/19 02:53:16;;;;;;;103.50;39.43;;;;;;;;;;5016433;28;20192;-76
2024/01/19 02:55:43;;;;;;;96.63;37.90;;;;;;;;;;5033477;28;20204;-76
2024/01/19 02:58:10;;;;;;;85.70;38.00;;;;;;;;;;5033095;28;20254;-76
2024/01/19 03:00:37;;;;;;;108.87;41.67;;;;;;;;;;5016066;28;20275;-76
2024/01/19 03:03:05;;;;;;;95.67;38.47;;;;;;;;;;5033434;28;20197;-76
2024/01/19 03:05:32;;;;;;;106.83;40.30;;;;;;;;;;4999195;28;20196;-76
2024/01/19 03:08:00;;;;;;;89.13;37.70;;;;;;;;;;5033483;28;20199;-76
2024/01/19 03:10:27;;;;;;;90.80;37.13;;;;;;;;;;5033310;28;20228;-76
2024/01/19 03:12:55;;;;;;;99.83;40.30;;;;;;;;;;5015996;28;20189;-76
2024/01/19 03:15:22;;;;;;;91.53;38.17;;;;;;;;;;5033431;28;20195;-76
2024/01/19 03:17:49;;;;;;;94.57;38.17;;;;;;;;;;5033447;28;20224;-76
2024/01/19 03:20:16;;;;;;;92.40;37.23;;;;;;;;;;5015990;28;20668;-76
2024/01/19 03:22:44;;;;;;;97.93;39.53;;;;;;;;;;5000066;28;20603;-76
2024/01/19 03:25:11;;;;;;;99.20;39.60;;;;;;;;;;5033285;28;20192;-76
2024/01/19 03:27:38;;;;;;;89.10;38.10;;;;;;;;;;5033728;28;20250;-76
2024/01/19 03:30:05;;;;;;;90.20;38.83;;;;;;;;;;5015945;28;20676;-76
2024/01/19 03:32:33;;;;;;;100.10;40.00;;;;;;;;;;5033220;28;20204;-77
2024/01/19 03:35:00;;;;;;;98.30;41.20;;;;;;;;;;5015580;28;20733;-76
2024/01/19 03:37:28;;;;;;;92.30;36.27;;;;;;;;;;5033137;28;20201;-76
2024/01/19 03:39:54;;;;;;;100.63;40.50;;;;;;;;;;5015620;28;20693;-77
2024/01/19 03:42:22;;;;;;;98.27;39.43;;;;;;;;;;5032918;28;20196;-77
2024/01/19 03:44:49;;;;;;;95.57;39.67;;;;;;;;;;5033008;28;20254;-77
2024/01/19 03:47:16;;;;;;;103.20;41.93;;;;;;;;;;4999762;28;20562;-77
2024/01/19 03:49:43;;;;;;;99.60;42.47;;;;;;;;;;5015380;28;20212;-80
2024/01/19 03:52:10;;;;;;;109.60;43.53;;;;;;;;;;5033444;28;20255;-76
2024/01/19 03:54:38;;;;;;;103.83;43.20;;;;;;;;;;5015799;28;20201;-77
2024/01/19 03:57:07;;;;;;;110.37;43.73;;;;;;;;;;5033133;28;20201;-77
2024/01/19 03:59:34;;;;;;;115.37;45.00;;;;;;;;;;5032868;28;20237;-77
2024/01/19 04:02:02;;;;;;;109.83;44.27;;;;;;;;;;5032827;28;20196;-76
2024/01/19 04:04:29;;;;;;;114.93;43.30;;;;;;;;;;4999365;28;20251;-78
2024/01/19 04:06:56;;;;;;;113.17;45.03;;;;;;;;;;5032775;28;20664;-77
2024/01/19 04:09:23;;;;;;;120.73;48.07;;;;;;;;;;5033003;28;20283;-78
2024/01/19 04:11:50;;;;;;;114.73;46.33;;;;;;;;;;5032926;28;20531;-78
2024/01/19 04:14:17;;;;;;;119.90;46.53;;;;;;;;;;5033149;28;20200;-78
2024/01/19 04:16:45;;;;;;;118.87;46.80;;;;;;;;;;5032662;28;20193;-77
2024/01/19 04:19:12;;;;;;;130.70;47.63;;;;;;;;;;5035495;28;20751;-76
2024/01/19 04:21:39;;;;;;;118.70;46.83;;;;;;;;;;5020024;28;20207;-76
2024/01/19 04:24:06;;;;;;;118.83;45.00;;;;;;;;;;5076526;28;20195;-76
2024/01/19 04:26:37;;;;;;;120.00;45.90;;;;;;;;;;5076220;28;20659;-76
2024/01/19 04:29:04;;;;;;;114.50;43.73;;;;;;;;;;5076507;28;20206;-76
2024/01/19 04:31:31;;;;;;;109.30;43.90;;;;;;;;;;5076139;28;20199;-77
2024/01/19 04:33:59;;;;;;;111.00;41.27;;;;;;;;;;5076241;28;20203;-77
2024/01/19 04:36:26;;;;;;;93.33;36.77;;;;;;;;;;5076013;28;20198;-76
2024/01/19 04:38:53;;;;;;;107.40;39.30;;;;;;;;;;5058635;28;20223;-77
2024/01/19 04:41:20;;;;;;;96.60;40.17;;;;;;;;;;5076651;28;20252;-76
2024/01/19 04:43:48;;;;;;;95.30;37.37;;;;;;;;;;5076278;28;20203;-77
2024/01/19 04:46:15;;;;;;;95.13;38.73;;;;;;;;;;5076240;28;20225;-76
2024/01/19 04:48:42;;;;;;;92.80;36.57;;;;;;;;;;5076345;28;20204;-76
2024/01/19 04:51:10;;;;;;;82.07;33.53;;;;;;;;;;5075992;28;20648;-79
2024/01/19 04:53:37;;;;;;;89.13;35.57;;;;;;;;;;5076845;28;20209;-79
2024/01/19 04:56:05;;;;;;;76.47;31.40;;;;;;;;;;5075758;28;20637;-77
2024/01/19 04:58:33;;;;;;;81.90;33.97;;;;;;;;;;5079678;28;20321;-77
2024/01/19 05:01:01;;;;;;;73.80;29.93;;;;;;;;;;5095820;28;20205;-76
2024/01/19 05:03:28;;;;;;;80.73;32.60;;;;;;;;;;5072131;28;20646;-78
2024/01/19 05:05:55;;;;;;;71.63;30.03;;;;;;;;;;5071932;28;20262;-76
2024/01/19 05:08:23;;;;;;;62.23;26.57;;;;;;;;;;5073735;28;20269;-77
2024/01/19 05:10:50;;;;;;;53.00;24.50;;;;;;;;;;5063552;28;20228;-76
2024/01/19 05:13:17;;;;;;;51.83;24.17;;;;;;;;;;5072080;28;20231;-77
2024/01/19 05:15:44;;;;;;;52.80;23.67;;;;;;;;;;5073298;28;20239;-78
2024/01/19 05:18:11;;;;;;;60.70;23.63;;;;;;;;;;5068426;28;20244;-77
2024/01/19 05:20:38;;;;;;;66.27;28.43;;;;;;;;;;5061713;28;20228;-77
2024/01/19 05:23:06;;;;;;;54.33;24.17;;;;;;;;;;5065595;28;20220;-77
2024/01/19 05:25:34;;;;;;;72.10;28.57;;;;;;;;;;5061970;28;20254;-77
2024/01/19 05:28:02;;;;;;;53.53;24.17;;;;;;;;;;5074012;28;20319;-76
2024/01/19 05:30:29;;;;;;;58.07;25.83;;;;;;;;;;5070140;28;20223;-78
2024/01/19 05:32:56;;;;;;;58.40;25.13;;;;;;;;;;5062153;28;20238;-77
2024/01/19 05:35:24;;;;;;;52.67;24.77;;;;;;;;;;5060271;28;20227;-77
2024/01/19 05:37:51;;;;;;;55.13;24.33;;;;;;;;;;5063907;28;20578;-77
2024/01/19 05:40:18;;;;;;;54.53;24.40;;;;;;;;;;5062361;28;20731;-77
2024/01/19 05:42:46;;;;;;;61.63;26.03;;;;;;;;;;5063056;28;20243;-78
2024/01/19 05:45:13;;;;;;;54.80;22.73;;;;;;;;;;5063728;28;20230;-77
2024/01/19 05:47:40;;;;;;;50.03;22.67;;;;;;;;;;5062783;28;20712;-76
2024/01/19 05:50:09;;;;;;;46.93;21.80;;;;;;;;;;5045983;28;20239;-76
2024/01/19 05:52:36;;;;;;;53.57;21.47;;;;;;;;;;5063103;28;20223;-77
2024/01/19 05:55:08;;;;;;;47.80;21.03;;;;;;;;;;5045908;28;20216;-77
2024/01/19 05:57:35;;;;;;;57.80;24.43;;;;;;;;;;5061549;28;20225;-77
2024/01/19 06:00:02;;;;;;;56.00;24.70;;;;;;;;;;5050268;28;20239;-77
2024/01/19 06:02:37;;;;;;;49.80;22.97;;;;;;;;;;5041339;28;20222;-77
2024/01/19 06:05:05;;;;;;;54.47;22.60;;;;;;;;;;5049059;28;20277;-77
2024/01/19 06:07:33;;;;;;;58.37;24.07;;;;;;;;;;5051909;28;20315;-77
2024/01/19 06:10:00;;;;;;;59.17;24.73;;;;;;;;;;5052681;28;20219;-77
2024/01/19 06:12:27;;;;;;;58.57;23.67;;;;;;;;;;5049338;28;20232;-78
2024/01/19 06:14:55;;;;;;;44.93;18.07;;;;;;;;;;5042666;28;20228;-78
2024/01/19 06:17:22;;;;;;;46.07;21.27;;;;;;;;;;5035428;28;20228;-77
2024/01/19 06:19:49;;;;;;;44.77;19.40;;;;;;;;;;5040284;28;20232;-78
2024/01/19 06:22:16;;;;;;;44.97;20.13;;;;;;;;;;5043210;28;20276;-78
2024/01/19 06:24:43;;;;;;;47.07;22.40;;;;;;;;;;5039498;28;20228;-78
2024/01/19 06:27:10;;;;;;;61.87;22.87;;;;;;;;;;5036903;28;20231;-78
2024/01/19 06:29:37;;;;;;;55.53;22.00;;;;;;;;;;5049846;28;20223;-79
2024/01/19 06:32:05;;;;;;;47.30;20.90;;;;;;;;;;5052294;28;20235;-77
2024/01/19 06:34:32;;;;;;;41.73;19.43;;;;;;;;;;5052250;28;20246;-77
2024/01/19 06:36:59;;;;;;;43.87;21.67;;;;;;;;;;5052024;28;20223;-77
2024/01/19 06:39:26;;;;;;;46.83;21.83;;;;;;;;;;5052538;28;20262;-77
2024/01/19 06:41:54;;;;;;;47.50;21.77;;;;;;;;;;5051294;28;20262;-77
2024/01/19 06:44:21;;;;;;;43.50;19.50;;;;;;;;;;5052976;28;20231;-77
2024/01/19 06:46:48;;;;;;;42.13;19.57;;;;;;;;;;5051742;28;20224;-77
2024/01/19 06:49:15;;;;;;;47.80;20.30;;;;;;;;;;5051914;28;20227;-76
2024/01/19 06:51:42;;;;;;;37.73;18.27;;;;;;;;;;5051711;28;20318;-77
2024/01/19 06:54:10;;;;;;;47.63;19.77;;;;;;;;;;5052603;28;20228;-76
2024/01/19 06:56:37;;;;;;;34.37;16.33;;;;;;;;;;5052022;28;20281;-78
2024/01/19 06:59:04;;;;;;;44.30;18.13;;;;;;;;;;5052346;28;20286;-77
2024/01/19 07:01:31;;;;;;;36.10;16.07;;;;;;;;;;5052216;28;20235;-77
2024/01/19 07:03:58;;;;;;;40.27;17.77;;;;;;;;;;5052179;28;20228;-79
2024/01/19 07:06:25;;;;;;;36.43;17.23;;;;;;;;;;5052283;28;20230;-78
2024/01/19 07:08:53;;;;;;;35.33;15.40;;;;;;;;;;5052070;28;20232;-77
2024/01/19 07:11:20;;;;;;;40.90;17.07;;;;;;;;;;5052706;28;20224;-77
2024/01/19 07:13:47;;;;;;;35.47;14.93;;;;;;;;;;5051982;28;20278;-77
2024/01/19 07:16:14;;;;;;;37.87;15.67;;;;;;;;;;5052400;28;20232;-77
2024/01/19 07:18:42;;;;;;;36.03;16.20;;;;;;;;;;5049422;28;20236;-77
2024/01/19 07:21:09;;;;;;;33.90;16.13;;;;;;;;;;5032459;28;20229;-76
2024/01/19 07:23:37;;;;;;;31.00;15.77;;;;;;;;;;5032398;28;20588;-77
2024/01/19 07:26:04;;;;;;;37.93;16.07;;;;;;;;;;5032404;28;20259;-76
2024/01/19 07:28:32;;;;;;;35.10;15.13;;;;;;;;;;5032439;28;20240;-77
2024/01/19 07:30:59;;;;;;;36.77;16.03;;;;;;;;;;5032198;28;20221;-77
2024/01/19 07:33:26;;;;;;;39.53;15.87;;;;;;;;;;5031674;28;20237;-77
2024/01/19 07:35:59;;;;;;;31.93;14.20;;;;;;;;;;5032201;28;20221;-77
2024/01/19 07:38:27;;;;;;;37.03;15.73;;;;;;;;;;5032259;28;20722;-78
2024/01/19 07:40:55;;;;;;;42.03;16.87;;;;;;;;;;5032096;28;20618;-77
2024/01/19 07:43:22;;;;;;;42.43;17.30;;;;;;;;;;5032529;28;20228;-76
2024/01/19 07:45:49;;;;;;;46.80;19.07;;;;;;;;;;5031745;28;20315;-79
2024/01/19 07:48:16;;;;;;;56.40;23.90;;;;;;;;;;5031549;28;20712;-80
2024/01/19 07:50:44;;;;;;;58.07;21.97;;;;;;;;;;5047798;28;20223;-80
2024/01/19 07:53:11;;;;;;;34.40;13.60;;;;;;;;;;5054643;28;20307;-75
2024/01/19 07:55:38;;;;;;;24.27;12.00;;;;;;;;;;5056379;28;20716;-77
2024/01/19 07:58:05;;;;;;;29.33;14.10;;;;;;;;;;5056406;28;20636;-77
2024/01/19 08:00:32;;;;;;;30.93;12.80;;;;;;;;;;5054504;28;20236;-76
2024/01/19 08:03:00;;;;;;;36.93;15.30;;;;;;;;;;5054163;28;20201;-77
2024/01/19 08:05:27;;;;;;;35.43;17.00;;;;;;;;;;5054356;28;20196;-77
2024/01/19 08:07:54;;;;;;;35.97;16.57;;;;;;;;;;5054702;28;20201;-77
2024/01/19 08:10:21;;;;;;;36.67;16.53;;;;;;;;;;5054681;28;20246;-77
2024/01/19 08:12:48;;;;;;;41.77;16.00;;;;;;;;;;5055220;28;20688;-76
2024/01/19 08:15:15;;;;;;;36.53;19.00;;;;;;;;;;5054544;28;20200;-77
2024/01/19 08:17:43;;;;;;;32.27;13.40;;;;;;;;;;5056215;28;20215;-77
2024/01/19 08:20:10;;;;;;;31.63;13.33;;;;;;;;;;5056394;28;20234;-77
2024/01/19 08:22:38;;;;;;;28.00;13.07;;;;;;;;;;5055932;28;20220;-77
2024/01/19 08:25:06;;;;;;;37.50;16.33;;;;;;;;;;5056015;28;20265;-77
2024/01/19 08:27:33;;;;;;;36.00;14.77;;;;;;;;;;5055955;28;20200;-76
2024/01/19 08:30:00;;;;;;;33.87;15.90;;;;;;;;;;5056083;28;20575;-77
2024/01/19 08:32:28;;;;;;;28.60;13.80;;;;;;;;;;5056306;28;20207;-77
2024/01/19 08:34:55;;;;;;;32.87;15.50;;;;;;;;;;5056124;28;20722;-77
2024/01/19 08:37:22;;;;;;;36.77;15.03;;;;;;;;;;5055884;28;20192;-77
2024/01/19 08:39:53;;;;;;;39.83;16.60;;;;;;;;;;5055892;28;20227;-77
2024/01/19 08:42:20;;;;;;;39.67;17.20;;;;;;;;;;5054492;28;20199;-76
2024/01/19 08:44:47;;;;;;;41.23;17.13;;;;;;;;;;5056048;28;20200;-76
2024/01/19 08:47:15;;;;;;;43.50;17.73;;;;;;;;;;5055712;28;20253;-77
2024/01/19 08:49:42;;;;;;;44.77;16.40;;;;;;;;;;5054682;28;20204;-77
2024/01/19 08:52:09;;;;;;;39.33;15.80;;;;;;;;;;5055882;28;20200;-77
2024/01/19 08:54:38;;;;;;;36.90;16.20;;;;;;;;;;5055558;28;20215;-77
2024/01/19 08:57:05;;;;;;;39.47;16.93;;;;;;;;;;5055167;28;20208;-77
2024/01/19 08:59:32;;;;;;;39.67;17.43;;;;;;;;;;5055209;28;20255;-77
2024/01/19 09:02:00;;;;;;;40.00;17.33;;;;;;;;;;5055556;28;20203;-77
2024/01/19 09:04:27;;;;;;;34.13;16.83;;;;;;;;;;5054644;28;20687;-77
2024/01/19 09:06:55;;;;;;;40.33;17.90;;;;;;;;;;5055265;28;20200;-77
2024/01/19 09:09:24;;;;;;;49.57;19.93;;;;;;;;;;5054450;28;20212;-78
2024/01/19 09:11:51;;;;;;;52.97;19.93;;;;;;;;;;5054248;28;20200;-77
2024/01/19 09:14:20;;;;;;;57.57;22.17;;;;;;;;;;5035504;28;20204;-77
2024/01/19 09:16:47;;;;;;;55.83;23.53;;;;;;;;;;5035345;28;20228;-79
2024/01/19 09:19:15;;;;;;;53.57;21.67;;;;;;;;;;5033990;28;20230;-77
2024/01/19 09:21:45;;;;;;;59.50;23.80;;;;;;;;;;5034878;28;20196;-77
2024/01/19 09:24:12;;;;;;;46.20;19.50;;;;;;;;;;5035102;28;20247;-77
2024/01/19 09:26:40;;;;;;;51.83;21.50;;;;;;;;;;5034608;28;20263;-77
2024/01/19 09:29:09;;;;;;;44.50;18.77;;;;;;;;;;5035208;28;20204;-77
2024/01/19 09:31:43;;;;;;;40.57;18.20;;;;;;;;;;5034818;28;20212;-77
2024/01/19 09:34:10;;;;;;;47.87;19.77;;;;;;;;;;5035113;28;20294;-77
2024/01/19 09:36:38;;;;;;;48.23;19.50;;;;;;;;;;5034616;28;20200;-77
2024/01/19 09:39:06;;;;;;;54.40;21.40;;;;;;;;;;5034762;28;20263;-77
2024/01/19 09:41:37;;;;;;;49.57;19.77;;;;;;;;;;5034650;28;20236;-77
2024/01/19 09:44:08;;;;;;;49.07;20.20;;;;;;;;;;5033864;28;20200;-77
2024/01/19 09:46:42;;;;;;;61.30;23.63;;;;;;;;;;5033240;28;20629;-77
2024/01/19 09:49:38;;;;;;;45.27;19.63;;;;;;;;;;5034660;28;20531;-77
2024/01/19 09:52:15;;;;;;;61.97;20.67;;;;;;;;;;5034472;28;20677;-77
2024/01/19 09:54:42;;;;;;;62.33;23.37;;;;;;;;;;5033318;28;20196;-76
2024/01/19 09:57:10;;;;;;;50.37;20.80;;;;;;;;;;5033170;28;20251;-77
2024/01/19 09:59:37;;;;;;;52.80;21.33;;;;;;;;;;5033314;28;20233;-77
2024/01/19 10:02:06;;;;;;;53.47;21.03;;;;;;;;;;5044968;28;20336;-77
2024/01/19 10:04:34;;;;;;;51.77;21.30;;;;;;;;;;5052105;28;20224;-77
2024/01/19 10:07:01;;;;;;;57.03;19.87;;;;;;;;;;5050516;28;20236;-78
2024/01/19 10:09:29;;;;;;;53.20;20.90;;;;;;;;;;5051744;28;20236;-78
2024/01/19 10:11:56;;;;;;;50.43;21.20;;;;;;;;;;5052791;28;20243;-76
2024/01/19 10:14:25;;;;;;;58.37;22.20;;;;;;;;;;5039758;28;20223;-77
2024/01/19 10:16:53;;;;;;;59.67;22.33;;;;;;;;;;5053279;28;20231;-77
2024/01/19 10:19:21;;;;;;;58.10;23.40;;;;;;;;;;5052992;28;20319;-77
2024/01/19 10:21:51;;;;;;;54.77;21.23;;;;;;;;;;5052178;28;20692;-78
2024/01/19 10:24:19;;;;;;;50.90;20.37;;;;;;;;;;5051852;28;20282;-77
2024/01/19 10:26:55;;;;;;;46.80;21.03;;;;;;;;;;5051434;28;20231;-77
2024/01/19 10:29:22;;;;;;;42.67;18.73;;;;;;;;;;5051619;28;20220;-77
2024/01/19 10:31:54;;;;;;;56.93;22.03;;;;;;;;;;5051480;28;20319;-75
2024/01/19 10:34:23;;;;;;;47.50;21.33;;;;;;;;;;5051691;28;20231;-74
2024/01/19 10:36:51;;;;;;;57.30;24.90;;;;;;;;;;5051027;28;20227;-74
2024/01/19 10:39:26;;;;;;;53.53;20.23;;;;;;;;;;5052042;28;20281;-77
2024/01/19 10:42:04;;;;;;;46.87;21.07;;;;;;;;;;5051215;28;20715;-78
2024/01/19 10:44:32;;;;;;;67.47;23.27;;;;;;;;;;5052301;28;20223;-77
2024/01/19 10:47:00;;;;;;;58.77;21.20;;;;;;;;;;5051350;28;20239;-77
2024/01/19 10:49:27;;;;;;;58.37;21.23;;;;;;;;;;5052118;28;20232;-77
2024/01/19 10:51:56;;;;;;;76.93;26.57;;;;;;;;;;5051995;28;20231;-77
2024/01/19 10:54:25;;;;;;;43.80;18.23;;;;;;;;;;5052697;28;20204;-77
2024/01/19 10:57:05;;;;;;;65.90;20.73;;;;;;;;;;5053417;28;20196;-77
2024/01/19 10:59:34;;;;;;;43.13;16.87;;;;;;;;;;5053211;28;20285;-77
2024/01/19 11:02:03;;;;;;;53.97;19.97;;;;;;;;;;5053316;28;20196;-76
2024/01/19 11:04:32;;;;;;;46.40;19.17;;;;;;;;;;5053467;28;20219;-77
2024/01/19 11:07:00;;;;;;;68.47;21.33;;;;;;;;;;5053490;28;20207;-76
2024/01/19 11:09:27;;;;;;;68.23;22.43;;;;;;;;;;5053369;28;20708;-76
2024/01/19 11:11:58;;;;;;;59.53;20.10;;;;;;;;;;5052198;28;20212;-77
2024/01/19 11:14:27;;;;;;;62.93;26.67;;;;;;;;;;5052852;28;20197;-77
2024/01/19 11:16:55;;;;;;;62.17;22.43;;;;;;;;;;5053054;28;20220;-77
2024/01/19 11:19:23;;;;;;;57.80;28.40;;;;;;;;;;5053242;28;20200;-76
2024/01/19 11:21:51;;;;;;;43.03;18.30;;;;;;;;;;5052994;28;20234;-77
2024/01/19 11:24:19;;;;;;;40.47;16.60;;;;;;;;;;5052961;28;20546;-76
2024/01/19 11:27:06;;;;;;;41.67;16.40;;;;;;;;;;5052119;28;20304;-76
2024/01/19 11:29:36;;;;;;;36.13;15.40;;;;;;;;;;5056322;28;20203;-76
2024/01/19 11:32:04;;;;;;;38.90;16.00;;;;;;;;;;5056247;28;20747;-78
2024/01/19 11:34:50;;;;;;;50.97;18.70;;;;;;;;;;5055697;28;20710;-76
2024/01/19 11:37:53;;;;;;;50.10;18.53;;;;;;;;;;5055736;28;20548;-76
2024/01/19 11:40:23;;;;;;;44.20;16.27;;;;;;;;;;4975817;28;20229;-77
2024/01/19 11:42:51;;;;;;;56.00;20.33;;;;;;;;;;4975988;28;20217;-77
2024/01/19 11:45:38;;;;;;;60.57;21.43;;;;;;;;;;4975952;28;20768;-76
2024/01/19 11:48:06;;;;;;;49.67;19.07;;;;;;;;;;4975813;28;20261;-76
2024/01/19 11:50:44;;;;;;;43.40;18.20;;;;;;;;;;4975849;28;20218;-76
2024/01/19 11:53:13;;;;;;;50.53;19.40;;;;;;;;;;4975588;28;20226;-76
2024/01/19 11:55:48;;;;;;;47.47;22.47;;;;;;;;;;4975956;28;20213;-77
2024/01/19 11:58:27;;;;;;;49.20;19.57;;;;;;;;;;4975230;28;20257;-77
2024/01/19 12:00:56;;;;;;;43.70;17.63;;;;;;;;;;4959892;28;20234;-77
2024/01/19 12:03:23;;;;;;;48.00;18.50;;;;;;;;;;4975605;28;20662;-76
2024/01/19 12:05:54;;;;;;;37.53;15.87;;;;;;;;;;4975761;28;20223;-76
2024/01/19 12:08:21;;;;;;;41.10;16.63;;;;;;;;;;4975508;28;20206;-77
2024/01/19 12:11:09;;;;;;;42.83;17.63;;;;;;;;;;4975514;28;20202;-77
2024/01/19 12:13:41;;;;;;;70.90;21.60;;;;;;;;;;4990005;28;20200;-76
2024/01/19 12:16:22;;;;;;;60.20;19.20;;;;;;;;;;5056180;28;20270;-76
2024/01/19 12:18:53;;;;;;;58.67;26.73;;;;;;;;;;5056389;28;20215;-76
2024/01/19 12:21:22;;;;;;;70.87;23.83;;;;;;;;;;5056008;28;20232;-77
2024/01/19 12:23:56;;;;;;;114.60;40.90;;;;;;;;;;5056224;28;20200;-76
2024/01/19 12:26:24;;;;;;;70.80;26.93;;;;;;;;;;5056122;28;20540;-77
2024/01/19 12:28:55;;;;;;;56.43;20.43;;;;;;;;;;5056170;28;20223;-77
2024/01/19 12:31:36;;;;;;;62.20;20.37;;;;;;;;;;5055961;28;20240;-76
2024/01/19 12:34:13;;;;;;;52.67;21.03;;;;;;;;;;5038564;28;20204;-77
2024/01/19 12:36:41;;;;;;;72.50;26.20;;;;;;;;;;5056026;28;20204;-76
2024/01/19 12:39:13;;;;;;;61.80;21.90;;;;;;;;;;5036054;28;20215;-77
2024/01/19 12:41:40;;;;;;;61.17;22.33;;;;;;;;;;5042721;28;20569;-76
2024/01/19 12:44:07;;;;;;;58.43;20.77;;;;;;;;;;5044337;28;20215;-77
2024/01/19 12:46:34;;;;;;;66.60;26.07;;;;;;;;;;5045090;28;20193;-77
2024/01/19 12:49:02;;;;;;;62.57;22.37;;;;;;;;;;5045058;28;20200;-76
2024/01/19 12:51:30;;;;;;;53.93;20.03;;;;;;;;;;5046357;28;20200;-77
2024/01/19 12:53:59;;;;;;;53.70;21.00;;;;;;;;;;5042378;28;20196;-77
2024/01/19 12:56:29;;;;;;;53.33;23.40;;;;;;;;;;5040627;28;20231;-75
2024/01/19 12:59:15;;;;;;;59.13;23.80;;;;;;;;;;5035656;28;20256;-76
2024/01/19 13:01:44;;;;;;;44.13;19.77;;;;;;;;;;5035205;28;20689;-76
2024/01/19 13:04:11;;;;;;;59.40;20.67;;;;;;;;;;5038499;28;20227;-77
2024/01/19 13:06:42;;;;;;;54.30;21.87;;;;;;;;;;5044543;28;20246;-76
2024/01/19 13:09:10;;;;;;;52.37;20.27;;;;;;;;;;5043538;28;20199;-77
2024/01/19 13:11:37;;;;;;;54.23;21.60;;;;;;;;;;5043280;28;20208;-76
2024/01/19 13:14:06;;;;;;;47.80;19.40;;;;;;;;;;5046656;28;20193;-76
2024/01/19 13:16:43;;;;;;;48.07;19.63;;;;;;;;;;5041590;28;20252;-76
2024/01/19 13:19:10;;;;;;;46.97;18.37;;;;;;;;;;5044619;28;20698;-76
2024/01/19 13:21:37;;;;;;;50.23;21.77;;;;;;;;;;5042728;28;20220;-76
2024/01/19 13:24:05;;;;;;;45.80;18.07;;;;;;;;;;5049987;28;20199;-76
2024/01/19 13:26:31;;;;;;;46.40;18.27;;;;;;;;;;5049569;28;20193;-77
2024/01/19 13:28:59;;;;;;;54.33;19.77;;;;;;;;;;5039857;28;20242;-76
2024/01/19 13:31:26;;;;;;;108.07;49.77;;;;;;;;;;5044926;28;20224;-76
2024/01/19 13:33:53;;;;;;;104.40;49.77;;;;;;;;;;5044178;28;20236;-77
2024/01/19 13:36:20;;;;;;;62.53;28.33;;;;;;;;;;5045810;28;20223;-76
2024/01/19 13:38:48;;;;;;;50.13;20.67;;;;;;;;;;5046137;28;20220;-76
2024/01/19 13:41:15;;;;;;;62.50;24.07;;;;;;;;;;5044974;28;20244;-76
2024/01/19 13:43:44;;;;;;;49.70;22.17;;;;;;;;;;5045114;28;20219;-76
2024/01/19 13:46:15;;;;;;;46.60;21.20;;;;;;;;;;5042331;28;20220;-77
2024/01/19 13:48:43;;;;;;;51.93;22.00;;;;;;;;;;5042710;28;20224;-76
2024/01/19 13:51:10;;;;;;;59.10;24.53;;;;;;;;;;5045054;28;20231;-76
2024/01/19 13:53:38;;;;;;;52.07;22.40;;;;;;;;;;5044702;28;20224;-76
2024/01/19 13:56:06;;;;;;;52.30;24.53;;;;;;;;;;5043872;28;20231;-76
2024/01/19 13:58:34;;;;;;;131.63;42.73;;;;;;;;;;5041103;28;20228;-76
2024/01/19 14:01:01;;;;;;;293.63;91.03;;;;;;;;;;5041291;28;20232;-75
2024/01/19 14:03:29;;;;;;;100.43;45.27;;;;;;;;;;5044492;28;20227;-75
2024/01/19 14:05:56;;;;;;;71.93;34.00;;;;;;;;;;5043566;28;20239;-76
2024/01/19 14:08:23;;;;;;;69.03;32.27;;;;;;;;;;5040336;28;20282;-76
2024/01/19 14:10:51;;;;;;;75.50;34.67;;;;;;;;;;5041464;28;20219;-76
2024/01/19 14:13:18;;;;;;;72.00;31.67;;;;;;;;;;5041791;28;20271;-76
2024/01/19 14:15:48;;;;;;;76.80;37.23;;;;;;;;;;5043283;28;20220;-76
2024/01/19 14:18:19;;;;;;;63.33;29.13;;;;;;;;;;5043574;28;20247;-76
2024/01/19 14:20:46;;;;;;;80.23;32.53;;;;;;;;;;5042402;28;20240;-76